Time;durP1;ratioP1;P1;durP2;ratioP2;P2;SDS_P1;SDS_P2;PMS_P1;PMS_P2;Temp;Humidity;BMP_temperature;BMP_pressure;BME280_temperature;BME280_humidity;BME280_pressure;Samples;Min_cycle;Max_cycle;Signal;HPM_P1;HPM_P2
2024/01/27 00:01:03;;;;;;;15.10;2.60;;;;;;;3.25;100.00;99510.73;436711;1260;139553;-60
2024/01/27 00:11:11;;;;;;;7.90;1.90;;;;;;;3.25;100.00;99525.08;432732;1256;139775;-61
2024/01/27 00:21:17;;;;;;;7.40;2.50;;;;;;;3.23;100.00;99541.59;432834;1261;140222;-59
2024/01/27 00:31:23;;;;;;;10.90;3.10;;;;;;;3.21;100.00;99552.70;432565;1261;139405;-59
2024/01/27 00:41:29;;;;;;;5.60;2.90;;;;;;;3.18;100.00;99566.31;432650;1256;139469;-59
2024/01/27 00:51:35;;;;;;;9.10;2.80;;;;;;;3.18;100.00;99582.40;432792;1261;140185;-60
2024/01/27 01:01:40;;;;;;;7.00;2.40;;;;;;;3.15;100.00;99600.14;432663;1259;139480;-59
2024/01/27 01:11:46;;;;;;;10.10;3.50;;;;;;;3.10;100.00;99609.64;432753;1257;139258;-59
2024/01/27 01:21:52;;;;;;;10.30;2.50;;;;;;;3.02;100.00;99617.16;432881;1257;140827;-59
2024/01/27 01:31:58;;;;;;;7.90;2.30;;;;;;;2.97;100.00;99621.32;432979;1257;141793;-59
2024/01/27 01:42:04;;;;;;;9.40;3.00;;;;;;;2.96;100.00;99625.17;432979;1259;141373;-59
2024/01/27 01:52:10;;;;;;;7.00;2.30;;;;;;;2.98;100.00;99638.59;432759;1261;140058;-59
2024/01/27 02:02:16;;;;;;;8.40;1.90;;;;;;;2.93;100.00;99644.41;432398;1259;139561;-60
2024/01/27 02:12:22;;;;;;;7.60;1.90;;;;;;;2.92;100.00;99644.27;432606;1261;139156;-60
2024/01/27 02:22:28;;;;;;;8.40;3.20;;;;;;;2.88;100.00;99663.79;433148;1260;140431;-59
2024/01/27 02:32:34;;;;;;;4.90;2.00;;;;;;;2.82;100.00;99659.30;432995;1261;389810;-59
2024/01/27 02:42:42;;;;;;;7.80;2.10;;;;;;;2.73;100.00;99656.96;432607;1257;139546;-59
2024/01/27 02:52:47;;;;;;;4.50;1.50;;;;;;;2.69;100.00;99661.27;432791;1261;140573;-59
2024/01/27 03:02:54;;;;;;;9.40;3.10;;;;;;;2.67;100.00;99663.73;433138;1261;140083;-59
2024/01/27 03:13:00;;;;;;;9.30;2.90;;;;;;;2.68;100.00;99671.82;434491;1261;139856;-59
2024/01/27 03:23:06;;;;;;;7.70;2.10;;;;;;;2.67;100.00;99673.23;433311;1261;139569;-59
2024/01/27 03:33:12;;;;;;;8.40;2.90;;;;;;;2.67;100.00;99668.20;433021;1259;139443;-58
2024/01/27 03:43:17;;;;;;;;;;;;;;;2.64;100.00;99675.56;433078;1259;140059;-58
2024/01/27 03:53:22;;;;;;;7.30;1.80;;;;;;;2.59;100.00;99681.95;432627;1262;126962;-58
2024/01/27 04:03:28;;;;;;;9.30;2.20;;;;;;;2.55;100.00;99692.25;432643;1261;139506;-61
2024/01/27 04:13:35;;;;;;;5.50;2.20;;;;;;;2.51;100.00;99704.64;432671;1261;139586;-59
2024/01/27 04:23:40;;;;;;;6.20;2.40;;;;;;;2.47;100.00;99706.84;432522;1260;139776;-59
2024/01/27 04:33:46;;;;;;;7.10;1.90;;;;;;;2.43;100.00;99704.70;432776;1260;141070;-59
2024/01/27 04:43:53;;;;;;;9.20;3.40;;;;;;;2.38;100.00;99712.07;432967;1261;144107;-60
2024/01/27 04:53:59;;;;;;;4.90;1.80;;;;;;;2.37;100.00;99722.66;432686;1261;139557;-60
2024/01/27 05:04:05;;;;;;;5.90;2.20;;;;;;;2.36;100.00;99719.23;432822;1261;141339;-60
2024/01/27 05:14:11;;;;;;;5.90;2.10;;;;;;;2.34;100.00;99722.58;433876;1260;140760;-60
2024/01/27 05:24:16;;;;;;;6.40;2.70;;;;;;;2.32;100.00;99722.80;432820;1262;142165;-61
2024/01/27 05:34:22;;;;;;;7.10;2.30;;;;;;;2.30;100.00;99720.95;432899;1263;139565;-60
2024/01/27 05:44:28;;;;;;;5.90;2.10;;;;;;;2.29;100.00;99713.90;432888;1261;139764;-60
2024/01/27 05:54:34;;;;;;;9.80;2.30;;;;;;;2.29;100.00;99716.31;432707;1257;140704;-58
2024/01/27 06:04:40;;;;;;;8.00;3.00;;;;;;;2.29;100.00;99724.24;432567;1260;139823;-64
2024/01/27 06:14:46;;;;;;;6.30;2.50;;;;;;;2.15;100.00;99728.95;432974;1260;140946;-59
2024/01/27 06:24:52;;;;;;;10.50;2.30;;;;;;;2.00;100.00;99726.77;433399;1261;141028;-58
2024/01/27 06:34:58;;;;;;;7.50;2.40;;;;;;;1.88;100.00;99731.55;433056;1261;139627;-60
2024/01/27 06:45:04;;;;;;;5.60;1.90;;;;;;;1.84;100.00;99730.79;434424;1258;139535;-59
2024/01/27 06:55:11;;;;;;;9.60;3.00;;;;;;;1.83;100.00;99729.26;433054;1258;141318;-61
2024/01/27 07:05:17;;;;;;;7.70;2.50;;;;;;;1.83;100.00;99726.86;434916;1257;141647;-59
2024/01/27 07:15:23;;;;;;;13.30;2.80;;;;;;;1.84;100.00;99735.79;433070;1258;139401;-59
2024/01/27 07:25:29;;;;;;;7.00;2.60;;;;;;;1.82;100.00;99741.21;433194;1261;140316;-60
2024/01/27 07:35:35;;;;;;;11.00;2.90;;;;;;;1.76;100.00;99741.35;433224;1260;139817;-59
2024/01/27 07:45:41;;;;;;;8.70;3.20;;;;;;;1.74;100.00;99749.02;433299;1258;141255;-59
2024/01/27 07:55:47;;;;;;;6.80;2.70;;;;;;;1.78;100.00;99760.46;434037;1260;140560;-60
2024/01/27 08:05:52;;;;;;;8.70;3.20;;;;;;;1.74;100.00;99765.92;433632;1260;140525;-58
2024/01/27 08:15:58;;;;;;;5.90;2.80;;;;;;;1.62;100.00;99775.35;433142;1257;140149;-59
2024/01/27 08:26:05;;;;;;;7.30;3.10;;;;;;;1.54;100.00;99785.73;433194;1260;141001;-60
2024/01/27 08:36:15;;;;;;;6.10;3.30;;;;;;;1.46;100.00;99798.67;432605;1260;140859;-60
2024/01/27 08:46:22;;;;;;;6.80;3.40;;;;;;;1.36;100.00;99809.77;435270;1260;140841;-60
2024/01/27 08:56:27;;;;;;;5.80;2.60;;;;;;;1.29;100.00;99825.11;434049;1257;139811;-60
2024/01/27 09:06:33;;;;;;;6.40;2.90;;;;;;;1.21;100.00;99831.48;432562;1260;141248;-59
2024/01/27 09:16:40;;;;;;;6.60;2.90;;;;;;;1.23;100.00;99853.33;432984;1257;139480;-58
2024/01/27 09:26:46;;;;;;;5.80;2.30;;;;;;;1.20;100.00;99863.76;433008;1260;139699;-59
2024/01/27 09:36:52;;;;;;;5.30;3.30;;;;;;;1.16;100.00;99874.02;432577;1257;140122;-60
2024/01/27 09:46:58;;;;;;;5.00;3.00;;;;;;;1.21;100.00;99878.73;432423;1257;139602;-64
2024/01/27 09:57:05;;;;;;;8.60;3.00;;;;;;;1.25;100.00;99887.10;432902;1257;139800;-71
2024/01/27 10:07:11;;;;;;;2.60;1.90;;;;;;;1.43;100.00;99894.66;438493;1257;139432;-76
2024/01/27 10:17:23;;;;;;;5.00;3.10;;;;;;;1.57;100.00;99909.38;437669;1260;139561;-77
2024/01/27 10:27:29;;;;;;;3.20;2.00;;;;;;;1.65;100.00;99927.33;437950;1257;139743;-56
2024/01/27 10:37:35;;;;;;;3.00;1.50;;;;;;;1.72;100.00;99935.98;432993;1257;140362;-57
2024/01/27 10:47:43;;;;;;;3.50;1.40;;;;;;;1.75;100.00;99950.59;437715;1257;140264;-58
2024/01/27 10:57:51;;;;;;;4.90;2.00;;;;;;;1.76;100.00;99962.30;433224;1258;139153;-58
2024/01/27 11:07:59;;;;;;;3.90;1.70;;;;;;;1.84;100.00;99971.11;439495;1257;140584;-59
2024/01/27 11:18:07;;;;;;;4.50;2.00;;;;;;;1.89;100.00;99992.23;432445;1260;140218;-59
2024/01/27 11:28:17;;;;;;;2.80;1.80;;;;;;;1.86;100.00;100002.67;434757;1257;140817;-59
2024/01/27 11:38:23;;;;;;;2.80;1.50;;;;;;;1.85;100.00;100013.73;432433;1258;139863;-58
2024/01/27 11:48:29;;;;;;;3.50;1.60;;;;;;;1.89;100.00;100028.66;432750;1258;140499;-59
2024/01/27 11:58:36;;;;;;;3.00;1.80;;;;;;;1.94;100.00;100048.41;432708;1258;142127;-58
2024/01/27 12:08:46;;;;;;;5.30;1.60;;;;;;;2.02;100.00;100064.83;432675;1258;139769;-58
2024/01/27 12:18:56;;;;;;;4.50;2.40;;;;;;;2.05;100.00;100097.22;434098;1258;140389;-59
2024/01/27 12:29:02;;;;;;;1.50;1.00;;;;;;;2.04;100.00;100115.90;432393;1257;140349;-59
2024/01/27 12:39:09;;;;;;;3.80;1.80;;;;;;;2.00;100.00;100130.66;432736;1257;141189;-60
2024/01/27 12:49:15;;;;;;;3.10;1.30;;;;;;;1.95;100.00;100148.90;432655;1260;140606;-58
2024/01/27 12:59:21;;;;;;;5.90;1.80;;;;;;;1.88;100.00;100173.55;433371;1256;140722;-59
2024/01/27 13:09:27;;;;;;;2.40;1.90;;;;;;;1.86;100.00;100199.64;432740;1257;139760;-59
2024/01/27 13:19:33;;;;;;;5.10;3.20;;;;;;;1.83;100.00;100215.92;432618;1258;139728;-59
2024/01/27 13:29:39;;;;;;;5.40;2.10;;;;;;;1.81;100.00;100232.02;432747;1258;139711;-60
2024/01/27 13:39:45;;;;;;;3.50;2.10;;;;;;;1.78;100.00;100250.20;432794;1260;141327;-59
2024/01/27 13:49:52;;;;;;;12.20;2.50;;;;;;;1.76;100.00;100261.10;433371;1260;139607;-58
2024/01/27 13:59:58;;;;;;;5.80;2.10;;;;;;;1.74;100.00;100283.60;432744;1257;140347;-58
2024/01/27 14:10:04;;;;;;;4.40;2.60;;;;;;;1.69;100.00;100302.48;432984;1257;140432;-59
2024/01/27 14:20:13;;;;;;;5.50;2.50;;;;;;;1.65;100.00;100324.63;436439;1257;140750;-59
2024/01/27 14:30:19;;;;;;;6.70;3.20;;;;;;;1.60;100.00;100345.77;434595;1260;188729;-58
2024/01/27 14:40:25;;;;;;;4.50;2.60;;;;;;;1.52;100.00;100366.23;432565;1256;140323;-59
2024/01/27 14:50:32;;;;;;;9.70;4.10;;;;;;;1.42;100.00;100391.41;432851;1260;139729;-59
2024/01/27 15:00:38;;;;;;;6.90;4.40;;;;;;;1.26;100.00;100406.45;433516;1257;140197;-60
2024/01/27 15:10:45;;;;;;;12.80;4.10;;;;;;;1.18;100.00;100416.36;432990;1256;140810;-58
2024/01/27 15:20:51;;;;;;;7.00;4.50;;;;;;;1.18;100.00;100438.29;437927;1257;140992;-59
2024/01/27 15:30:56;;;;;;;13.00;7.00;;;;;;;1.23;100.00;100453.58;433158;1256;141823;-58
2024/01/27 15:41:07;;;;;;;12.10;4.80;;;;;;;1.31;100.00;100469.70;432691;1256;140354;-59
2024/01/27 15:51:13;;;;;;;11.10;4.10;;;;;;;1.41;100.00;100490.11;433344;1260;140721;-58
2024/01/27 16:01:19;;;;;;;12.80;5.90;;;;;;;1.50;100.00;100517.77;432670;1256;140575;-58
2024/01/27 16:11:25;;;;;;;9.00;4.10;;;;;;;1.60;100.00;100528.73;432559;1260;139752;-59
2024/01/27 16:21:30;;;;;;;10.30;4.10;;;;;;;1.67;100.00;100548.33;432774;1259;139571;-59
2024/01/27 16:31:38;;;;;;;9.70;3.80;;;;;;;1.70;100.00;100565.02;432517;1257;139896;-58
2024/01/27 16:41:45;;;;;;;9.10;4.30;;;;;;;1.65;100.00;100578.02;438147;1258;140880;-58
2024/01/27 16:51:50;;;;;;;;;;;;;;;1.50;100.00;100593.89;438179;1260;139985;-56
2024/01/27 17:01:57;;;;;;;8.20;4.30;;;;;;;1.17;100.00;100608.69;433223;1260;127549;-58
2024/01/27 17:12:05;;;;;;;13.00;4.10;;;;;;;0.84;100.00;100626.20;432707;1260;140130;-59
2024/01/27 17:22:11;;;;;;;13.10;5.50;;;;;;;0.58;100.00;100637.40;434246;1260;139940;-58
2024/01/27 17:32:17;;;;;;;15.10;5.60;;;;;;;0.39;100.00;100650.42;432681;1258;140760;-58
2024/01/27 17:42:23;;;;;;;11.40;5.60;;;;;;;0.22;100.00;100660.48;432549;1256;141278;-58
2024/01/27 17:52:29;;;;;;;11.80;4.70;;;;;;;0.12;100.00;100684.45;432499;1259;140498;-59
2024/01/27 18:02:35;;;;;;;9.30;4.30;;;;;;;0.05;100.00;100698.09;432723;1257;140817;-58
2024/01/27 18:12:41;;;;;;;10.20;5.20;;;;;;;-0.05;100.00;100717.56;442045;1258;140897;-59
2024/01/27 18:22:48;;;;;;;13.10;3.80;;;;;;;-0.19;100.00;100737.20;432575;1256;141461;-58
2024/01/27 18:32:54;;;;;;;6.90;3.70;;;;;;;-0.28;100.00;100750.83;432849;1256;141004;-58
2024/01/27 18:43:00;;;;;;;13.50;4.90;;;;;;;-0.39;100.00;100765.96;432664;1259;141028;-58
2024/01/27 18:53:06;;;;;;;9.50;4.70;;;;;;;-0.50;100.00;100773.01;432560;1260;140525;-59
2024/01/27 19:03:12;;;;;;;13.70;4.00;;;;;;;-0.58;100.00;100796.23;432667;1258;139520;-59
2024/01/27 19:13:18;;;;;;;13.90;4.50;;;;;;;-0.55;100.00;100810.86;432599;1260;140426;-57
2024/01/27 19:23:24;;;;;;;9.80;3.50;;;;;;;-0.49;100.00;100818.94;432702;1259;140663;-58
2024/01/27 19:33:30;;;;;;;15.30;4.80;;;;;;;-0.53;100.00;100838.70;432877;1258;140050;-58
2024/01/27 19:43:36;;;;;;;15.00;6.30;;;;;;;-0.52;100.00;100863.32;432714;1259;140592;-59
2024/01/27 19:53:42;;;;;;;10.60;6.10;;;;;;;-0.53;100.00;100880.70;433023;1259;141146;-59
2024/01/27 20:03:48;;;;;;;12.40;4.90;;;;;;;-0.64;100.00;100897.00;433082;1259;139847;-59
2024/01/27 20:13:53;;;;;;;;;;;;;;;-0.72;100.00;100912.10;433541;1259;141197;-58
2024/01/27 20:23:59;;;;;;;11.90;4.50;;;;;;;-0.67;100.00;100937.06;432839;1258;126712;-58
2024/01/27 20:34:05;;;;;;;12.10;5.40;;;;;;;-0.66;100.00;100943.95;432625;1259;140218;-60
2024/01/27 20:44:11;;;;;;;7.80;4.10;;;;;;;-0.74;100.00;100952.85;434066;1259;140152;-58
2024/01/27 20:54:17;;;;;;;9.20;5.10;;;;;;;-0.88;100.00;100961.20;432571;1259;141099;-58
2024/01/27 21:04:24;;;;;;;16.80;4.70;;;;;;;-1.07;100.00;100961.96;432815;1261;139727;-58
2024/01/27 21:14:31;;;;;;;12.60;5.10;;;;;;;-1.13;100.00;100975.86;433205;1261;139962;-60
2024/01/27 21:24:37;;;;;;;11.80;4.60;;;;;;;-1.15;100.00;100988.56;433528;1261;139851;-59
2024/01/27 21:34:43;;;;;;;7.80;5.20;;;;;;;-1.20;100.00;100998.48;432928;1261;140000;-58
2024/01/27 21:44:49;;;;;;;17.80;7.20;;;;;;;-1.30;100.00;101016.11;433236;1259;139660;-58
2024/01/27 21:54:55;;;;;;;15.60;5.90;;;;;;;-1.39;100.00;101022.39;433405;1261;140668;-59
2024/01/27 22:05:01;;;;;;;10.10;4.20;;;;;;;-1.29;100.00;101030.05;432519;1261;140833;-59
2024/01/27 22:15:09;;;;;;;11.10;5.00;;;;;;;-1.13;100.00;101033.95;434466;1256;140492;-59
2024/01/27 22:25:15;;;;;;;14.90;6.30;;;;;;;-1.03;100.00;101044.66;434856;1261;139689;-59
2024/01/27 22:35:21;;;;;;;9.40;4.30;;;;;;;-0.88;100.00;101049.25;433947;1260;140199;-59
2024/01/27 22:45:27;;;;;;;11.00;6.30;;;;;;;-0.70;100.00;101053.65;433957;1259;140652;-58
2024/01/27 22:55:33;;;;;;;12.20;5.50;;;;;;;-0.64;100.00;101074.16;432962;1261;141711;-59
2024/01/27 23:05:40;;;;;;;14.80;5.70;;;;;;;-0.57;100.00;101074.89;432690;1257;141096;-58
2024/01/27 23:15:46;;;;;;;17.90;6.40;;;;;;;-0.51;100.00;101081.29;435900;1259;139699;-59
2024/01/27 23:25:52;;;;;;;;;;;;;;;-0.43;100.00;101087.52;432330;1259;141309;-59
2024/01/27 23:35:57;;;;;;;9.90;5.20;;;;;;;-0.27;100.00;101088.30;432647;1262;127025;-59
2024/01/27 23:46:03;;;;;;;12.10;5.80;;;;;;;-0.09;100.00;101084.76;432886;1261;140918;-59
2024/01/27 23:56:10;;;;;;;11.40;4.70;;;;;;;0.16;100.00;101107.58;433271;1261;139602;-59
